Kokomo, IN (46901)

10:15 PM EDT on August 30, 2016 (GMT -0400)
| | Change Station

Elev -9999 ft 0.00 °N, 0.00 °E | Updated

Cloudy
Cloudy
70 °F
Feels Like 70 °F
N
2
Wind Variable Wind from WSW
Gusts mph

Today
High -- | Low -- °F
--% Chance of Precip.
Yesterday
High -- | Low -- °F
Precip. -- in
Pressure 30.08 in
Visibility 6.0 miles
Clouds Clear
Dew Point 68 °F
Humidity 93%
Rainfall --
Snow Depth Not available.
7:10 AM 8:18 PM
Waning Crescent, 2% visible
METAR KOKK 310155Z AUTO 15004KT 6SM CLR 21/21 A3008 RMK AO1
Pressure 30.08 in
Visibility 6.0 miles
Clouds Clear
Dew Point 68 °F
Humidity 93%
Rainfall --
Snow Depth Not available.
7:10 AM 8:18 PM
Waning Crescent, 2% visible
METAR KOKK 310155Z AUTO 15004KT 6SM CLR 21/21 A3008 RMK AO1

10-Day Weather Forecast

Almanac

Astronomy

Aug. 30, 2016 Rise Set
Actual Time
Civil Twilight
Nautical Twilight
Astronomical Twilight
Moon
Length of Visible Light
Length of Day
Tomorrow will be .
, % of the Moon is Illuminated

Today's Extremes

State Highs State Lows

Community

WunderPhotos

Upload Photos

1,935,993 photos uploaded!

WunderBlog® & News

Nearby

Air Quality

  Air Quality AQ Index Pollutant
Not available.

Snow Depth

Station Depth Elevation

Earthquake Activity

City Distance Mag. Time & Date
Minimum magnitude displayed is 2.5.

Coastal Water Temperatures

Place Temperature

Stations

Nearby Weather Stations

Station Location Temp. Windchill Dew Point Humidity Wind Precip. Elev Updated Type
                   

Watches & Warnings

There are currently no watches in effect.